Adak Island, Alaska
Current Conditions -  °F | °C
As of 2:56 AM on Saturday 22 Nov 2014 (Local Time) from PADK Reporting Station
Broken Clouds Broken Clouds  
Wind Chill: 32°   Ceiling: 5500
Heat Index: 39°   Visibility: 10mi
Dew Point: 30°   Wind: 13mph
Humidity: 70%   Direction: 340°NNW
Pressure: 29.35"   Gusts: 25mph
Location:  51.88°N, 176.65°W
Report Text: PADK 221156Z AUTO 34011G22KT 10SM FEW027 SCT040 BKN055 04/M01 A2935 RMK AO1 70002 10050 20040 52017
Loading
Personal Weather Stations






























Interactive Weather Map New forecast layout! Learn more

10-Day Weather Forecast

Advertisements
Track Severe Weather on mobile